createdAt,value
2019-04-14T00:00:11.919Z,1.30
2019-04-14T00:02:55.511Z,1.43
2019-04-14T00:05:28.824Z,1.20
2019-04-14T00:08:02.436Z,1.23
2019-04-14T00:10:35.500Z,1.37
2019-04-14T00:13:07.453Z,1.57
2019-04-14T00:15:45.077Z,0.90
2019-04-14T00:18:14.276Z,1.67
2019-04-14T00:20:46.938Z,1.33
2019-04-14T00:23:19.501Z,1.13
2019-04-14T00:25:52.421Z,1.20
2019-04-14T00:28:25.004Z,1.63
2019-04-14T00:30:57.699Z,1.47
2019-04-14T00:33:30.227Z,1.13
2019-04-14T00:36:08.779Z,2.53
2019-04-14T00:38:45.996Z,1.43
2019-04-14T00:41:43.913Z,0.67
2019-04-14T00:44:21.064Z,1.23
2019-04-14T00:47:02.858Z,0.87
2019-04-14T00:49:35.819Z,1.07
2019-04-14T00:52:10.005Z,1.13
2019-04-14T00:54:45.657Z,1.00
2019-04-14T00:57:18.100Z,0.80
2019-04-14T00:59:51.277Z,1.53
2019-04-14T01:02:25.041Z,1.17
2019-04-14T01:04:57.679Z,1.20
2019-04-14T01:07:32.754Z,0.83
2019-04-14T01:10:06.049Z,1.10
2019-04-14T01:12:40.926Z,0.90
2019-04-14T01:15:13.721Z,0.93
2019-04-14T01:17:46.481Z,1.73
2019-04-14T01:20:21.135Z,0.67
2019-04-14T01:22:53.406Z,1.17
2019-04-14T01:25:28.578Z,0.97
2019-04-14T01:28:02.704Z,0.80
2019-04-14T01:30:37.218Z,1.60
2019-04-14T01:33:11.906Z,1.80
2019-04-14T01:35:46.722Z,1.37
2019-04-14T01:38:19.562Z,0.93
2019-04-14T01:40:53.154Z,1.87
2019-04-14T01:43:25.662Z,0.97
2019-04-14T01:46:07.797Z,0.73
2019-04-14T01:48:34.601Z,1.17
2019-04-14T01:51:25.035Z,1.07
2019-04-14T01:54:17.159Z,1.07
2019-04-14T01:57:15.373Z,0.50
2019-04-14T01:59:48.231Z,0.97
2019-04-14T02:02:24.916Z,1.17
2019-04-14T02:04:57.892Z,0.37
2019-04-14T02:07:32.198Z,1.60
2019-04-14T02:10:04.479Z,0.97
2019-04-14T02:12:38.932Z,1.77
2019-04-14T02:15:11.270Z,1.00
2019-04-14T02:17:46.142Z,0.67
2019-04-14T02:20:18.603Z,1.40
2019-04-14T02:22:53.161Z,1.30
2019-04-14T02:25:29.607Z,0.77
2019-04-14T02:28:02.313Z,0.87
2019-04-14T02:30:41.612Z,0.67
2019-04-14T02:33:39.040Z,1.37
2019-04-14T02:36:14.557Z,0.80
2019-04-14T02:41:33.702Z,0.93
2019-04-14T02:44:09.696Z,1.07
2019-04-14T02:46:39.834Z,1.50
2019-04-14T02:49:14.351Z,0.90
2019-04-14T02:51:40.101Z,1.07
2019-04-14T02:56:58.433Z,1.53
2019-04-14T02:59:27.191Z,1.13
2019-04-14T03:02:14.078Z,0.73
2019-04-14T03:04:35.621Z,1.27
2019-04-14T03:07:15.930Z,1.43
2019-04-14T03:12:28.016Z,0.67
2019-04-14T03:15:03.644Z,1.37
2019-04-14T03:20:31.888Z,1.03
2019-04-14T03:23:19.151Z,0.80
2019-04-14T03:25:49.468Z,0.53
2019-04-14T03:28:36.658Z,1.27
2019-04-14T03:31:25.953Z,0.67
2019-04-14T03:34:05.261Z,1.10
2019-04-14T03:38:52.953Z,0.90
2019-04-14T03:43:50.811Z,1.00
2019-04-14T03:46:36.293Z,0.93
2019-04-14T03:51:44.528Z,0.50
2019-04-14T03:54:03.732Z,0.63
2019-04-14T03:56:55.477Z,0.73
2019-04-14T03:59:28.202Z,1.23
2019-04-14T04:02:00.884Z,1.23
2019-04-14T04:04:34.457Z,0.87
2019-04-14T04:07:06.322Z,0.73
2019-04-14T04:10:03.009Z,0.80
2019-04-14T04:12:35.758Z,0.43
2019-04-14T04:15:08.407Z,0.63
2019-04-14T04:18:05.031Z,0.97
2019-04-14T04:20:54.540Z,1.37
2019-04-14T04:23:42.462Z,0.70
2019-04-14T04:26:36.630Z,0.87
2019-04-14T04:29:20.563Z,1.37
2019-04-14T04:32:06.151Z,0.77
2019-04-14T04:34:53.725Z,0.80
2019-04-14T04:37:48.087Z,0.73
2019-04-14T04:40:24.601Z,0.53
2019-04-14T04:42:56.972Z,1.03
2019-04-14T04:45:30.003Z,0.93
2019-04-14T04:48:02.608Z,1.17
2019-04-14T04:50:34.726Z,0.80
2019-04-14T04:53:06.937Z,0.87
2019-04-14T04:55:40.105Z,1.07
2019-04-14T04:58:12.165Z,0.53
2019-04-14T05:00:48.602Z,1.00
2019-04-14T05:03:21.123Z,0.50
2019-04-14T05:06:28.764Z,0.83
2019-04-14T05:09:07.966Z,0.73
2019-04-14T05:11:50.846Z,0.93
2019-04-14T05:14:30.875Z,0.90
2019-04-14T05:17:03.686Z,1.00
2019-04-14T05:19:37.830Z,1.13
2019-04-14T05:22:09.279Z,0.43
2019-04-14T05:24:41.861Z,0.87
2019-04-14T05:27:14.598Z,1.57
2019-04-14T05:29:47.233Z,1.03
2019-04-14T05:32:19.469Z,1.37
2019-04-14T05:34:52.174Z,1.03
2019-04-14T05:37:26.794Z,0.90
2019-04-14T05:39:59.384Z,0.60
2019-04-14T05:42:31.945Z,0.40
2019-04-14T05:45:04.498Z,0.70
2019-04-14T05:47:37.134Z,0.90
2019-04-14T05:50:13.672Z,0.80
2019-04-14T05:52:47.084Z,0.80
2019-04-14T05:55:19.870Z,1.57
2019-04-14T05:57:52.519Z,0.57
2019-04-14T06:00:25.618Z,0.97
2019-04-14T06:02:59.524Z,0.77
2019-04-14T06:05:33.999Z,0.47
2019-04-14T06:08:06.243Z,0.80
2019-04-14T06:10:38.547Z,1.10
2019-04-14T06:13:11.894Z,0.80
2019-04-14T06:15:48.354Z,1.30
2019-04-14T06:18:20.126Z,1.67
2019-04-14T06:20:54.812Z,1.30
2019-04-14T06:23:27.384Z,0.70
2019-04-14T06:25:59.505Z,0.93
2019-04-14T06:28:31.869Z,1.37
2019-04-14T06:31:23.029Z,0.97
2019-04-14T06:34:12.294Z,0.73
2019-04-14T06:36:51.004Z,1.00
2019-04-14T06:39:29.501Z,0.40
2019-04-14T06:42:01.380Z,0.70
2019-04-14T06:44:36.404Z,0.83
2019-04-14T06:47:08.495Z,1.00
2019-04-14T06:49:48.760Z,0.77
2019-04-14T06:52:14.032Z,1.13
2019-04-14T06:54:45.942Z,1.13
2019-04-14T06:57:18.123Z,0.30
2019-04-14T06:59:50.073Z,1.43
2019-04-14T07:02:22.281Z,0.70
2019-04-14T07:04:54.016Z,0.93
2019-04-14T07:07:25.858Z,1.23
2019-04-14T07:09:57.649Z,0.70
2019-04-14T07:12:29.492Z,0.80
2019-04-14T07:15:03.750Z,1.37
2019-04-14T07:17:36.265Z,1.03
2019-04-14T07:20:09.143Z,0.80
2019-04-14T07:22:41.543Z,0.83
2019-04-14T07:25:13.900Z,0.80
2019-04-14T07:27:48.014Z,0.90
2019-04-14T07:30:41.650Z,1.03
2019-04-14T07:33:32.784Z,0.60
2019-04-14T07:36:30.973Z,0.40
2019-04-14T07:39:22.218Z,1.07
2019-04-14T07:42:19.511Z,0.97
2019-04-14T07:45:05.469Z,0.67
2019-04-14T07:47:46.998Z,0.67
2019-04-14T07:50:37.006Z,0.53
2019-04-14T07:53:37.528Z,0.87
2019-04-14T07:56:19.684Z,0.87
2019-04-14T07:59:09.129Z,1.10
2019-04-14T08:02:01.640Z,1.03
2019-04-14T08:04:48.565Z,0.97
2019-04-14T08:07:35.977Z,0.70
2019-04-14T08:10:12.494Z,0.93
2019-04-14T08:12:56.179Z,0.20
2019-04-14T08:15:33.843Z,1.27
2019-04-14T08:18:10.881Z,0.50
2019-04-14T08:20:46.561Z,1.90
2019-04-14T08:23:23.473Z,0.30
2019-04-14T08:25:59.752Z,0.43
2019-04-14T08:28:36.741Z,0.67
2019-04-14T08:31:09.435Z,0.50
2019-04-14T08:33:43.644Z,1.10
2019-04-14T08:36:20.299Z,0.53
2019-04-14T08:38:52.966Z,0.60
2019-04-14T08:41:28.369Z,1.27
2019-04-14T08:44:33.781Z,3.10
2019-04-14T08:47:18.766Z,4.53
2019-04-14T08:50:03.246Z,6.67
2019-04-14T08:53:04.454Z,5.23
2019-04-14T08:56:00.933Z,9.50
2019-04-14T08:58:52.934Z,7.87
2019-04-14T09:01:42.955Z,2.90
2019-04-14T09:04:31.182Z,3.60
2019-04-14T09:07:18.082Z,2.77
2019-04-14T09:10:30.190Z,2.00
2019-04-14T09:13:10.901Z,2.00
2019-04-14T09:15:47.533Z,1.27
2019-04-14T09:18:53.713Z,1.03
2019-04-14T09:21:46.093Z,1.13
2019-04-14T09:30:36.982Z,1.57
2019-04-14T09:33:38.009Z,1.27
2019-04-14T09:36:58.497Z,1.27
2019-04-14T09:49:34.748Z,0.97
2019-04-14T09:55:46.277Z,2.00
2019-04-14T09:58:36.400Z,1.73
2019-04-14T10:05:03.000Z,2.07
2019-04-14T10:07:49.344Z,1.90
2019-04-14T10:10:44.605Z,1.17
2019-04-14T10:13:43.635Z,1.40
2019-04-14T10:16:32.608Z,1.43
2019-04-14T10:19:24.138Z,0.90
2019-04-14T10:22:13.722Z,0.77
2019-04-14T10:25:11.072Z,1.00
2019-04-14T10:30:54.989Z,1.57
2019-04-14T10:34:24.619Z,2.30
2019-04-14T10:37:09.110Z,1.67
2019-04-14T10:39:47.476Z,1.80
2019-04-14T10:42:42.953Z,1.97
2019-04-14T10:45:21.517Z,1.50
2019-04-14T10:48:02.737Z,1.20
2019-04-14T10:50:38.677Z,1.33
2019-04-14T10:53:23.470Z,1.77
2019-04-14T10:56:30.034Z,1.33
2019-04-14T10:59:11.401Z,1.10
2019-04-14T11:01:59.256Z,1.20
2019-04-14T11:04:49.719Z,1.50
2019-04-14T11:07:33.161Z,1.83
2019-04-14T11:10:13.333Z,0.93
2019-04-14T11:12:58.866Z,0.97
2019-04-14T11:15:42.397Z,5.23
2019-04-14T11:18:14.489Z,2.90
2019-04-14T11:20:48.837Z,2.10
2019-04-14T11:23:21.125Z,3.03
2019-04-14T11:25:53.184Z,2.20
2019-04-14T11:28:25.122Z,2.40
2019-04-14T11:30:57.549Z,2.63
2019-04-14T11:33:54.856Z,1.60
2019-04-14T11:36:45.334Z,2.47
2019-04-14T11:39:18.211Z,2.20
2019-04-14T11:41:52.840Z,1.63
2019-04-14T11:44:27.435Z,2.10
2019-04-14T11:47:00.029Z,0.90
2019-04-14T11:49:36.141Z,0.93
2019-04-14T11:52:12.359Z,2.00
2019-04-14T11:54:49.910Z,1.60
2019-04-14T11:57:24.384Z,2.60
2019-04-14T12:00:28.613Z,2.50
2019-04-14T12:03:26.536Z,3.77
2019-04-14T12:06:20.437Z,5.20
2019-04-14T12:09:23.155Z,4.87
2019-04-14T12:11:58.172Z,6.37
2019-04-14T12:14:32.220Z,4.87
2019-04-14T12:17:11.391Z,3.30
2019-04-14T12:19:49.352Z,4.17
2019-04-14T12:22:27.427Z,3.97
2019-04-14T12:25:02.966Z,2.87
2019-04-14T12:27:41.993Z,3.30
2019-04-14T12:30:31.233Z,2.87
2019-04-14T12:33:14.186Z,4.00
2019-04-14T12:35:47.558Z,2.63
2019-04-14T12:38:21.512Z,2.87
2019-04-14T12:40:58.946Z,3.03
2019-04-14T12:43:45.886Z,3.10
2019-04-14T12:46:47.945Z,2.67
2019-04-14T12:49:27.993Z,2.93
2019-04-14T12:52:22.595Z,1.87
2019-04-14T12:54:58.141Z,1.20
2019-04-14T12:57:42.419Z,1.97
2019-04-14T13:00:44.922Z,2.90
2019-04-14T13:03:17.044Z,1.70
2019-04-14T13:05:51.125Z,2.43
2019-04-14T13:08:24.960Z,2.00
2019-04-14T13:11:15.420Z,1.17
2019-04-14T13:13:53.836Z,1.27
2019-04-14T13:16:39.741Z,1.60
2019-04-14T13:19:15.589Z,1.37
2019-04-14T13:21:50.620Z,1.27
2019-04-14T13:24:28.462Z,2.50
2019-04-14T13:27:03.261Z,1.67
2019-04-14T13:29:43.034Z,1.80
2019-04-14T13:32:17.482Z,1.30
2019-04-14T13:35:04.824Z,1.17
2019-04-14T13:37:39.057Z,1.47
2019-04-14T13:40:22.994Z,1.30
2019-04-14T13:43:04.117Z,1.20
2019-04-14T13:45:46.613Z,1.97
2019-04-14T13:48:20.248Z,1.27
2019-04-14T13:50:54.697Z,1.27
2019-04-14T13:53:29.463Z,1.50
2019-04-14T13:56:06.359Z,1.30
2019-04-14T13:58:43.933Z,1.10
2019-04-14T14:01:17.904Z,1.00
2019-04-14T14:03:53.047Z,1.20
2019-04-14T14:06:27.317Z,2.03
2019-04-14T14:09:01.486Z,2.33
2019-04-14T14:11:44.394Z,2.37
2019-04-14T14:14:27.393Z,2.67
2019-04-14T14:17:13.989Z,2.17
2019-04-14T14:19:57.635Z,1.20
2019-04-14T14:22:58.397Z,3.03
2019-04-14T14:25:28.206Z,2.17
2019-04-14T14:28:05.595Z,2.20
2019-04-14T14:30:39.052Z,4.27
2019-04-14T14:33:13.012Z,4.70
2019-04-14T14:35:48.507Z,3.80
2019-04-14T14:38:23.742Z,3.47
2019-04-14T14:40:59.450Z,2.73
2019-04-14T14:43:34.322Z,2.60
2019-04-14T14:46:33.256Z,3.07
2019-04-14T14:49:22.031Z,3.57
2019-04-14T14:52:05.874Z,8.57
2019-04-14T14:54:40.099Z,5.70
2019-04-14T14:57:13.628Z,2.33
2019-04-14T14:59:47.514Z,2.57
2019-04-14T15:02:21.024Z,2.00
2019-04-14T15:05:00.638Z,1.63
2019-04-14T15:07:35.604Z,2.83
2019-04-14T15:10:11.123Z,2.40
2019-04-14T15:12:48.285Z,1.77
2019-04-14T15:15:22.588Z,3.00
2019-04-14T15:17:57.111Z,2.60
2019-04-14T15:20:36.871Z,1.60
2019-04-14T15:23:10.987Z,0.70
2019-04-14T15:25:57.224Z,1.37
2019-04-14T15:28:32.179Z,1.50
2019-04-14T15:31:07.897Z,1.57
2019-04-14T15:33:42.283Z,0.80
2019-04-14T15:36:19.882Z,1.47
2019-04-14T15:38:54.708Z,1.93
2019-04-14T15:41:29.109Z,1.77
2019-04-14T15:44:08.015Z,1.43
2019-04-14T15:46:45.514Z,1.00
2019-04-14T15:49:20.016Z,0.73
2019-04-14T15:51:53.971Z,1.73
2019-04-14T15:54:28.436Z,1.07
2019-04-14T15:57:16.335Z,1.30
2019-04-14T16:00:10.454Z,0.90
2019-04-14T16:02:55.185Z,1.03
2019-04-14T16:05:46.190Z,0.90
2019-04-14T16:08:30.700Z,0.50
2019-04-14T16:11:32.862Z,1.73
2019-04-14T16:14:24.995Z,1.37
2019-04-14T16:17:20.608Z,1.27
2019-04-14T16:20:18.199Z,1.27
2019-04-14T16:22:53.763Z,1.13
2019-04-14T16:26:08.950Z,1.10
2019-04-14T16:28:52.766Z,1.00
2019-04-14T16:31:48.012Z,0.80
2019-04-14T16:34:29.865Z,0.97
2019-04-14T16:37:05.090Z,1.20
2019-04-14T16:39:42.700Z,1.17
2019-04-14T16:42:18.529Z,0.27
2019-04-14T16:44:53.832Z,1.00
2019-04-14T16:47:28.654Z,0.80
2019-04-14T16:50:05.037Z,1.43
2019-04-14T16:52:54.646Z,0.93
2019-04-14T16:55:35.364Z,0.60
2019-04-14T16:58:21.854Z,0.97
2019-04-14T17:01:04.540Z,1.27
2019-04-14T17:03:38.614Z,1.30
2019-04-14T17:06:12.064Z,0.50
2019-04-14T17:08:45.925Z,0.60
2019-04-14T17:11:20.660Z,0.60
2019-04-14T17:14:23.018Z,0.63
2019-04-14T17:17:20.443Z,0.70
2019-04-14T17:20:04.489Z,0.37
2019-04-14T17:23:02.158Z,0.70
2019-04-14T17:25:49.188Z,0.40
2019-04-14T17:28:37.488Z,0.50
2019-04-14T17:31:22.817Z,0.47
2019-04-14T17:34:15.410Z,0.27
2019-04-14T17:37:03.823Z,0.30
2019-04-14T17:39:51.174Z,0.57
2019-04-14T17:42:47.535Z,1.30
2019-04-14T17:45:42.716Z,0.83
2019-04-14T17:48:56.877Z,0.77
2019-04-14T17:51:39.913Z,0.30
2019-04-14T17:54:43.115Z,0.60
2019-04-14T17:57:34.863Z,0.80
2019-04-14T18:00:28.962Z,0.47
2019-04-14T18:03:18.801Z,0.37
2019-04-14T18:05:55.761Z,0.53
2019-04-14T18:08:59.754Z,0.53
2019-04-14T18:11:52.080Z,0.97
2019-04-14T18:14:45.813Z,0.40
2019-04-14T18:17:51.767Z,1.17
2019-04-14T18:20:33.448Z,1.00
2019-04-14T18:23:07.897Z,0.40
2019-04-14T18:25:41.306Z,0.40
2019-04-14T18:28:35.382Z,0.77
2019-04-14T18:31:38.805Z,1.13
2019-04-14T18:34:35.572Z,0.00
2019-04-14T18:37:43.808Z,0.63
2019-04-14T18:40:33.064Z,0.57
2019-04-14T18:43:21.173Z,0.53
2019-04-14T18:46:06.988Z,0.47
2019-04-14T18:49:04.194Z,0.50
2019-04-14T18:51:56.374Z,0.40
2019-04-14T18:55:03.073Z,0.40
2019-04-14T18:58:13.160Z,0.80
2019-04-14T19:00:54.127Z,0.97
2019-04-14T19:03:28.991Z,0.50
2019-04-14T19:06:05.645Z,0.63
2019-04-14T19:08:40.164Z,0.40
2019-04-14T19:11:52.649Z,0.50
2019-04-14T19:14:31.917Z,1.57
2019-04-14T19:17:33.834Z,0.90
2019-04-14T19:20:08.727Z,2.90
2019-04-14T19:22:45.950Z,1.73
2019-04-14T19:25:20.278Z,0.90
2019-04-14T19:27:54.890Z,1.13
2019-04-14T19:30:30.048Z,1.83
2019-04-14T19:33:04.480Z,1.17
2019-04-14T19:35:41.213Z,2.33
2019-04-14T19:38:17.521Z,1.13
2019-04-14T19:40:51.704Z,1.70
2019-04-14T19:43:30.149Z,1.90
2019-04-14T19:46:06.307Z,1.27
2019-04-14T19:48:40.303Z,1.70
2019-04-14T19:51:15.057Z,0.97
2019-04-14T19:53:48.591Z,0.77
2019-04-14T19:56:23.070Z,1.03
2019-04-14T19:58:57.722Z,1.57
2019-04-14T20:01:32.568Z,0.90
2019-04-14T20:04:07.047Z,1.63
2019-04-14T20:06:44.125Z,2.53
2019-04-14T20:09:18.744Z,2.63
2019-04-14T20:11:53.560Z,3.47
2019-04-14T20:14:30.127Z,4.87
2019-04-14T20:17:13.243Z,5.90
2019-04-14T20:20:08.266Z,5.80
2019-04-14T20:22:59.677Z,2.23
2019-04-14T20:25:51.046Z,4.23
2019-04-14T20:28:43.762Z,1.83
2019-04-14T20:31:46.353Z,2.80
2019-04-14T20:34:19.879Z,1.30
2019-04-14T20:36:54.312Z,0.60
2019-04-14T20:39:28.910Z,1.67
2019-04-14T20:42:02.107Z,0.83
2019-04-14T20:44:36.633Z,1.07
2019-04-14T20:47:11.804Z,1.13
2019-04-14T20:49:46.906Z,1.03
2019-04-14T20:52:28.270Z,1.60
2019-04-14T20:55:07.890Z,2.90
2019-04-14T20:57:42.585Z,2.47
2019-04-14T21:00:20.624Z,1.03
2019-04-14T21:03:30.587Z,1.40
2019-04-14T21:06:20.927Z,1.77
2019-04-14T21:09:19.697Z,1.97
2019-04-14T21:12:01.797Z,1.57
2019-04-14T21:15:07.689Z,1.63
2019-04-14T21:17:52.622Z,1.87
2019-04-14T21:20:37.090Z,0.83
2019-04-14T21:23:22.763Z,1.80
2019-04-14T21:26:14.975Z,1.10
2019-04-14T21:29:12.360Z,1.43
2019-04-14T21:32:09.222Z,1.53
2019-04-14T21:35:11.945Z,0.63
2019-04-14T21:38:08.010Z,1.20
2019-04-14T21:40:58.132Z,0.13
2019-04-14T21:43:34.025Z,0.97
2019-04-14T21:46:08.253Z,1.00
2019-04-14T21:48:42.033Z,0.43
2019-04-14T21:51:16.958Z,0.40
2019-04-14T21:53:50.738Z,0.83
2019-04-14T21:56:34.661Z,0.50
2019-04-14T21:59:19.595Z,0.90
2019-04-14T22:02:13.002Z,1.83
2019-04-14T22:05:21.786Z,1.83
2019-04-14T22:08:13.336Z,1.73
2019-04-14T22:10:55.366Z,0.50
2019-04-14T22:13:29.829Z,0.83
2019-04-14T22:16:04.419Z,0.87
2019-04-14T22:18:39.445Z,1.30
2019-04-14T22:21:14.377Z,1.93
2019-04-14T22:24:00.365Z,1.00
2019-04-14T22:26:26.403Z,0.77
2019-04-14T22:29:02.634Z,1.63
2019-04-14T22:31:38.962Z,1.43
2019-04-14T22:34:14.388Z,1.20
2019-04-14T22:36:48.353Z,0.90
2019-04-14T22:39:21.693Z,0.73
2019-04-14T22:41:59.018Z,1.10
2019-04-14T22:44:32.582Z,1.40
2019-04-14T22:47:05.465Z,1.20
2019-04-14T22:49:41.558Z,1.33
2019-04-14T22:52:15.241Z,1.47
2019-04-14T22:54:56.575Z,1.47
2019-04-14T22:57:31.970Z,1.97
2019-04-14T23:00:11.135Z,1.47
2019-04-14T23:03:05.061Z,1.73
2019-04-14T23:06:03.795Z,1.33
2019-04-14T23:08:52.261Z,1.57
2019-04-14T23:11:56.701Z,1.30
2019-04-14T23:14:44.192Z,2.17
2019-04-14T23:17:39.791Z,1.93
2019-04-14T23:20:22.984Z,1.63
2019-04-14T23:23:12.851Z,1.40
2019-04-14T23:25:46.226Z,1.30
2019-04-14T23:28:20.249Z,0.73
2019-04-14T23:30:56.027Z,1.83
2019-04-14T23:33:30.190Z,1.73
2019-04-14T23:36:05.110Z,1.00
2019-04-14T23:38:37.953Z,1.70
2019-04-14T23:41:11.089Z,1.47
2019-04-14T23:43:44.465Z,1.37
2019-04-14T23:46:17.434Z,2.13
2019-04-14T23:48:50.708Z,1.73
2019-04-14T23:51:24.238Z,1.60
2019-04-14T23:53:57.224Z,0.87
2019-04-14T23:56:30.916Z,2.10
2019-04-14T23:59:05.220Z,1.50
